sensor_id;sensor_type;location;lat;lon;timestamp;pressure;altitude;pressure_sealevel;temperature;humidity
45040;BME280;30778;53.574;7.770;2023-04-28T00:00:11;101786.97;;;2.90;48.88
45040;BME280;30778;53.574;7.770;2023-04-28T00:02:37;101801.66;;;2.96;48.83
45040;BME280;30778;53.574;7.770;2023-04-28T00:05:03;101785.25;;;2.91;49.27
45040;BME280;30778;53.574;7.770;2023-04-28T00:07:28;101790.44;;;2.92;48.98
45040;BME280;30778;53.574;7.770;2023-04-28T00:09:53;101777.50;;;2.91;49.08
45040;BME280;30778;53.574;7.770;2023-04-28T00:12:21;101788.72;;;2.91;48.85
45040;BME280;30778;53.574;7.770;2023-04-28T00:14:46;101787.03;;;2.98;48.69
45040;BME280;30778;53.574;7.770;2023-04-28T00:17:11;101784.41;;;2.90;49.12
45040;BME280;30778;53.574;7.770;2023-04-28T00:19:37;101783.56;;;2.97;49.02
45040;BME280;30778;53.574;7.770;2023-04-28T00:22:02;101779.31;;;3.01;48.74
45040;BME280;30778;53.574;7.770;2023-04-28T00:24:29;101768.06;;;2.91;49.33
45040;BME280;30778;53.574;7.770;2023-04-28T00:26:55;101771.53;;;2.98;48.99
45040;BME280;30778;53.574;7.770;2023-04-28T00:29:21;101756.91;;;3.00;49.05
45040;BME280;30778;53.574;7.770;2023-04-28T00:31:47;101763.75;;;2.93;49.18
45040;BME280;30778;53.574;7.770;2023-04-28T00:34:12;101773.16;;;2.81;49.61
45040;BME280;30778;53.574;7.770;2023-04-28T00:36:39;101767.19;;;2.91;49.07
45040;BME280;30778;53.574;7.770;2023-04-28T00:39:04;101768.91;;;2.92;49.39
45040;BME280;30778;53.574;7.770;2023-04-28T00:41:30;101765.50;;;2.97;48.83
45040;BME280;30778;53.574;7.770;2023-04-28T00:43:55;101766.31;;;2.90;49.36
45040;BME280;30778;53.574;7.770;2023-04-28T00:46:28;101768.00;;;2.81;49.37
45040;BME280;30778;53.574;7.770;2023-04-28T00:48:54;101761.13;;;2.89;49.10
45040;BME280;30778;53.574;7.770;2023-04-28T00:51:20;101753.38;;;2.89;49.19
45040;BME280;30778;53.574;7.770;2023-04-28T00:53:46;101748.22;;;2.83;49.20
45040;BME280;30778;53.574;7.770;2023-04-28T00:56:12;101749.91;;;2.81;49.26
45040;BME280;30778;53.574;7.770;2023-04-28T00:58:38;101743.00;;;2.73;49.57
45040;BME280;30778;53.574;7.770;2023-04-28T01:01:04;101737.81;;;2.72;49.69
45040;BME280;30778;53.574;7.770;2023-04-28T01:03:33;101735.25;;;2.76;49.19
45040;BME280;30778;53.574;7.770;2023-04-28T01:05:59;101739.50;;;2.68;49.82
45040;BME280;30778;53.574;7.770;2023-04-28T01:08:29;101737.69;;;2.55;49.89
45040;BME280;30778;53.574;7.770;2023-04-28T01:10:56;101731.75;;;2.65;49.85
45040;BME280;30778;53.574;7.770;2023-04-28T01:13:41;101726.59;;;2.67;49.56
45040;BME280;30778;53.574;7.770;2023-04-28T01:16:07;101740.31;;;2.58;50.15
45040;BME280;30778;53.574;7.770;2023-04-28T01:18:33;101735.13;;;2.56;50.23
45040;BME280;30778;53.574;7.770;2023-04-28T01:20:59;101730.84;;;2.59;50.04
45040;BME280;30778;53.574;7.770;2023-04-28T01:23:24;101723.09;;;2.59;50.40
45040;BME280;30778;53.574;7.770;2023-04-28T01:25:50;101716.19;;;2.56;50.66
45040;BME280;30778;53.574;7.770;2023-04-28T01:28:15;101717.03;;;2.55;50.17
45040;BME280;30778;53.574;7.770;2023-04-28T01:30:41;101711.97;;;2.67;49.96
45040;BME280;30778;53.574;7.770;2023-04-28T01:33:07;101709.34;;;2.63;49.99
45040;BME280;30778;53.574;7.770;2023-04-28T01:35:32;101710.22;;;2.66;50.04
45040;BME280;30778;53.574;7.770;2023-04-28T01:37:58;101707.59;;;2.55;50.21
45040;BME280;30778;53.574;7.770;2023-04-28T01:40:26;101710.13;;;2.51;50.55
45040;BME280;30778;53.574;7.770;2023-04-28T01:42:51;101701.53;;;2.52;50.39
45040;BME280;30778;53.574;7.770;2023-04-28T01:45:17;101697.25;;;2.54;50.67
45040;BME280;30778;53.574;7.770;2023-04-28T01:47:42;101704.19;;;2.61;50.55
45040;BME280;30778;53.574;7.770;2023-04-28T01:50:08;101697.22;;;2.49;50.52
45040;BME280;30778;53.574;7.770;2023-04-28T01:52:34;101689.47;;;2.51;50.83
45040;BME280;30778;53.574;7.770;2023-04-28T01:54:59;101695.56;;;2.61;50.52
45040;BME280;30778;53.574;7.770;2023-04-28T01:57:25;101692.13;;;2.62;50.23
45040;BME280;30778;53.574;7.770;2023-04-28T01:59:55;101688.66;;;2.56;50.25
45040;BME280;30778;53.574;7.770;2023-04-28T02:02:21;101680.91;;;2.55;50.67
45040;BME280;30778;53.574;7.770;2023-04-28T02:04:46;101680.88;;;2.49;50.45
45040;BME280;30778;53.574;7.770;2023-04-28T02:07:12;101679.19;;;2.54;50.64
45040;BME280;30778;53.574;7.770;2023-04-28T02:09:38;101677.47;;;2.56;50.36
45040;BME280;30778;53.574;7.770;2023-04-28T02:12:03;101676.63;;;2.59;50.15
45040;BME280;30778;53.574;7.770;2023-04-28T02:14:29;101668.00;;;2.55;50.18
45040;BME280;30778;53.574;7.770;2023-04-28T02:16:57;101661.13;;;2.54;49.90
45040;BME280;30778;53.574;7.770;2023-04-28T02:19:23;101661.09;;;2.51;50.16
45040;BME280;30778;53.574;7.770;2023-04-28T02:21:48;101658.44;;;2.39;50.63
45040;BME280;30778;53.574;7.770;2023-04-28T02:24:14;101650.78;;;2.49;50.48
45040;BME280;30778;53.574;7.770;2023-04-28T02:26:39;101648.16;;;2.48;50.46
45040;BME280;30778;53.574;7.770;2023-04-28T02:29:05;101640.47;;;2.54;50.13
45040;BME280;30778;53.574;7.770;2023-04-28T02:31:31;101631.03;;;2.56;49.98
45040;BME280;30778;53.574;7.770;2023-04-28T02:33:57;101635.28;;;2.51;50.25
45040;BME280;30778;53.574;7.770;2023-04-28T02:36:22;101631.94;;;2.66;49.95
45040;BME280;30778;53.574;7.770;2023-04-28T02:38:48;101629.31;;;2.56;50.13
45040;BME280;30778;53.574;7.770;2023-04-28T02:41:13;101629.28;;;2.55;49.95
45040;BME280;30778;53.574;7.770;2023-04-28T02:43:40;101624.03;;;2.40;50.38
45040;BME280;30778;53.574;7.770;2023-04-28T02:46:06;101615.53;;;2.54;50.46
45040;BME280;30778;53.574;7.770;2023-04-28T02:48:31;101607.81;;;2.64;50.14
45040;BME280;30778;53.574;7.770;2023-04-28T02:50:59;101605.22;;;2.62;50.07
45040;BME280;30778;53.574;7.770;2023-04-28T02:53:26;101603.50;;;2.60;50.21
45040;BME280;30778;53.574;7.770;2023-04-28T02:55:52;101601.84;;;2.69;50.16
45040;BME280;30778;53.574;7.770;2023-04-28T02:58:18;101609.56;;;2.65;50.24
45040;BME280;30778;53.574;7.770;2023-04-28T03:00:45;101596.66;;;2.66;49.99
45040;BME280;30778;53.574;7.770;2023-04-28T03:03:10;101601.78;;;2.57;50.32
45040;BME280;30778;53.574;7.770;2023-04-28T03:05:36;101588.91;;;2.68;50.26
45040;BME280;30778;53.574;7.770;2023-04-28T03:08:02;101588.03;;;2.63;49.91
45040;BME280;30778;53.574;7.770;2023-04-28T03:10:27;101578.56;;;2.62;50.23
45040;BME280;30778;53.574;7.770;2023-04-28T03:12:53;101570.84;;;2.66;49.86
45040;BME280;30778;53.574;7.770;2023-04-28T03:15:18;101568.28;;;2.65;49.85
45040;BME280;30778;53.574;7.770;2023-04-28T03:17:44;101564.81;;;2.69;50.07
45040;BME280;30778;53.574;7.770;2023-04-28T03:20:10;101561.34;;;2.62;50.06
45040;BME280;30778;53.574;7.770;2023-04-28T03:22:36;101560.50;;;2.63;50.51
45040;BME280;30778;53.574;7.770;2023-04-28T03:25:02;101549.31;;;2.60;50.32
45040;BME280;30778;53.574;7.770;2023-04-28T03:27:31;101551.91;;;2.58;50.37
45040;BME280;30778;53.574;7.770;2023-04-28T03:29:56;101543.31;;;2.68;50.32
45040;BME280;30778;53.574;7.770;2023-04-28T03:32:22;101534.72;;;2.71;50.50
45040;BME280;30778;53.574;7.770;2023-04-28T03:34:47;101533.00;;;2.77;50.11
45040;BME280;30778;53.574;7.770;2023-04-28T03:37:13;101526.13;;;2.70;50.54
45040;BME280;30778;53.574;7.770;2023-04-28T03:39:38;101524.44;;;2.88;50.14
45040;BME280;30778;53.574;7.770;2023-04-28T03:42:04;101508.09;;;2.78;50.47
45040;BME280;30778;53.574;7.770;2023-04-28T03:44:36;101507.19;;;2.77;50.82
45040;BME280;30778;53.574;7.770;2023-04-28T03:47:02;101493.44;;;2.79;50.48
45040;BME280;30778;53.574;7.770;2023-04-28T03:49:28;101491.75;;;2.93;50.15
45040;BME280;30778;53.574;7.770;2023-04-28T03:51:53;101486.59;;;2.91;50.01
45040;BME280;30778;53.574;7.770;2023-04-28T03:54:19;101481.44;;;3.14;49.28
45040;BME280;30778;53.574;7.770;2023-04-28T03:56:45;101480.59;;;3.05;49.62
45040;BME280;30778;53.574;7.770;2023-04-28T03:59:11;101478.88;;;3.19;49.43
45040;BME280;30778;53.574;7.770;2023-04-28T04:01:38;101475.41;;;3.08;49.47
45040;BME280;30778;53.574;7.770;2023-04-28T04:04:03;101476.28;;;3.17;49.27
45040;BME280;30778;53.574;7.770;2023-04-28T04:06:29;101471.97;;;3.19;49.12
45040;BME280;30778;53.574;7.770;2023-04-28T04:08:55;101476.31;;;3.30;48.75
45040;BME280;30778;53.574;7.770;2023-04-28T04:11:20;101469.44;;;3.32;48.79
45040;BME280;30778;53.574;7.770;2023-04-28T04:13:46;101473.75;;;3.41;48.70
45040;BME280;30778;53.574;7.770;2023-04-28T04:16:14;101474.56;;;3.53;48.56
45040;BME280;30778;53.574;7.770;2023-04-28T04:18:40;101472.00;;;3.55;48.55
45040;BME280;30778;53.574;7.770;2023-04-28T04:21:18;101469.41;;;3.55;48.42
45040;BME280;30778;53.574;7.770;2023-04-28T04:23:44;101469.41;;;3.56;48.53
45040;BME280;30778;53.574;7.770;2023-04-28T04:26:11;101463.38;;;3.64;48.30
45040;BME280;30778;53.574;7.770;2023-04-28T04:28:37;101459.03;;;3.69;48.44
45040;BME280;30778;53.574;7.770;2023-04-28T04:31:05;101462.47;;;3.83;47.85
45040;BME280;30778;53.574;7.770;2023-04-28T04:33:31;101459.81;;;4.01;47.76
45040;BME280;30778;53.574;7.770;2023-04-28T04:35:56;101458.09;;;4.10;47.72
45040;BME280;30778;53.574;7.770;2023-04-28T04:38:22;101464.13;;;4.10;47.89
45040;BME280;30778;53.574;7.770;2023-04-28T04:40:48;101450.28;;;4.19;47.34
45040;BME280;30778;53.574;7.770;2023-04-28T04:43:14;101451.91;;;4.34;47.16
45040;BME280;30778;53.574;7.770;2023-04-28T04:45:45;101449.31;;;4.41;46.89
45040;BME280;30778;53.574;7.770;2023-04-28T04:48:12;101451.13;;;4.26;47.59
45040;BME280;30778;53.574;7.770;2023-04-28T04:50:40;101444.28;;;4.12;47.61
45040;BME280;30778;53.574;7.770;2023-04-28T04:53:07;101441.53;;;4.48;47.21
45040;BME280;30778;53.574;7.770;2023-04-28T04:55:33;101438.06;;;4.42;47.08
45040;BME280;30778;53.574;7.770;2023-04-28T04:57:59;101438.16;;;4.30;47.64
45040;BME280;30778;53.574;7.770;2023-04-28T05:00:30;101434.56;;;4.57;47.32
45040;BME280;30778;53.574;7.770;2023-04-28T05:02:58;101419.72;;;4.84;46.91
45040;BME280;30778;53.574;7.770;2023-04-28T05:05:24;101421.25;;;5.10;46.08
45040;BME280;30778;53.574;7.770;2023-04-28T05:08:02;101422.94;;;5.17;45.93
45040;BME280;30778;53.574;7.770;2023-04-28T05:10:28;101428.13;;;5.14;46.14
45040;BME280;30778;53.574;7.770;2023-04-28T05:12:55;101424.66;;;5.18;46.27
45040;BME280;30778;53.574;7.770;2023-04-28T05:15:21;101417.69;;;5.23;46.11
45040;BME280;30778;53.574;7.770;2023-04-28T05:18:07;101408.19;;;5.22;46.48
45040;BME280;30778;53.574;7.770;2023-04-28T05:20:35;101409.06;;;5.24;46.46
45040;BME280;30778;53.574;7.770;2023-04-28T05:23:01;101403.09;;;5.13;46.33
45040;BME280;30778;53.574;7.770;2023-04-28T05:25:27;101394.41;;;5.20;46.61
45040;BME280;30778;53.574;7.770;2023-04-28T05:27:54;101396.84;;;5.32;46.31
45040;BME280;30778;53.574;7.770;2023-04-28T05:30:20;101398.47;;;5.45;45.72
45040;BME280;30778;53.574;7.770;2023-04-28T05:32:47;101398.25;;;5.67;45.32
45040;BME280;30778;53.574;7.770;2023-04-28T05:35:13;101399.72;;;5.88;44.56
45040;BME280;30778;53.574;7.770;2023-04-28T05:37:40;101397.81;;;6.04;44.09
45040;BME280;30778;53.574;7.770;2023-04-28T05:40:09;101404.34;;;6.34;43.46
45040;BME280;30778;53.574;7.770;2023-04-28T05:42:35;101396.28;;;6.54;42.87
45040;BME280;30778;53.574;7.770;2023-04-28T05:45:01;101394.53;;;6.56;42.97
45040;BME280;30778;53.574;7.770;2023-04-28T05:47:27;101387.66;;;6.52;42.56
45040;BME280;30778;53.574;7.770;2023-04-28T05:49:54;101393.22;;;6.83;42.01
45040;BME280;30778;53.574;7.770;2023-04-28T05:52:20;101391.06;;;7.60;40.44
45040;BME280;30778;53.574;7.770;2023-04-28T05:54:46;101392.72;;;8.46;38.73
45040;BME280;30778;53.574;7.770;2023-04-28T05:57:12;101389.88;;;9.27;37.81
45040;BME280;30778;53.574;7.770;2023-04-28T05:59:38;101385.00;;;9.48;36.06
45040;BME280;30778;53.574;7.770;2023-04-28T06:02:04;101383.63;;;9.34;35.95
45040;BME280;30778;53.574;7.770;2023-04-28T06:04:29;101389.41;;;8.38;37.85
45040;BME280;30778;53.574;7.770;2023-04-28T06:06:56;101373.47;;;7.72;38.72
45040;BME280;30778;53.574;7.770;2023-04-28T06:09:22;101372.75;;;7.18;40.20
45040;BME280;30778;53.574;7.770;2023-04-28T06:11:47;101373.28;;;6.85;41.09
45040;BME280;30778;53.574;7.770;2023-04-28T06:14:13;101377.03;;;6.67;41.60
45040;BME280;30778;53.574;7.770;2023-04-28T06:16:40;101368.84;;;6.36;42.18
45040;BME280;30778;53.574;7.770;2023-04-28T06:19:06;101374.16;;;6.28;42.49
45040;BME280;30778;53.574;7.770;2023-04-28T06:21:32;101374.88;;;6.37;42.68
45040;BME280;30778;53.574;7.770;2023-04-28T06:23:58;101372.34;;;6.32;42.73
45040;BME280;30778;53.574;7.770;2023-04-28T06:26:24;101367.00;;;6.44;42.82
45040;BME280;30778;53.574;7.770;2023-04-28T06:28:49;101370.69;;;6.26;42.65
45040;BME280;30778;53.574;7.770;2023-04-28T06:31:15;101368.53;;;6.58;42.31
45040;BME280;30778;53.574;7.770;2023-04-28T06:33:41;101369.19;;;6.70;41.15
45040;BME280;30778;53.574;7.770;2023-04-28T06:36:07;101354.22;;;6.86;40.50
45040;BME280;30778;53.574;7.770;2023-04-28T06:38:33;101366.63;;;6.69;40.27
45040;BME280;30778;53.574;7.770;2023-04-28T06:40:58;101358.59;;;6.83;40.04
45040;BME280;30778;53.574;7.770;2023-04-28T06:43:24;101358.22;;;6.52;39.62
45040;BME280;30778;53.574;7.770;2023-04-28T06:46:02;101352.06;;;7.11;38.50
45040;BME280;30778;53.574;7.770;2023-04-28T06:48:28;101349.13;;;6.79;38.60
45040;BME280;30778;53.574;7.770;2023-04-28T06:50:53;101347.38;;;6.82;38.62
45040;BME280;30778;53.574;7.770;2023-04-28T06:53:21;101337.91;;;6.78;38.64
45040;BME280;30778;53.574;7.770;2023-04-28T06:55:47;101355.25;;;6.75;39.30
45040;BME280;30778;53.574;7.770;2023-04-28T06:58:12;101352.66;;;6.76;38.73
45040;BME280;30778;53.574;7.770;2023-04-28T07:00:38;101340.97;;;6.47;38.92
45040;BME280;30778;53.574;7.770;2023-04-28T07:03:06;101341.94;;;6.95;38.62
45040;BME280;30778;53.574;7.770;2023-04-28T07:05:31;101340.59;;;7.22;38.23
45040;BME280;30778;53.574;7.770;2023-04-28T07:07:57;101341.78;;;7.04;37.98
45040;BME280;30778;53.574;7.770;2023-04-28T07:10:23;101332.63;;;6.83;38.16
45040;BME280;30778;53.574;7.770;2023-04-28T07:12:49;101330.84;;;6.86;38.83
45040;BME280;30778;53.574;7.770;2023-04-28T07:15:16;101329.09;;;6.87;38.29
45040;BME280;30778;53.574;7.770;2023-04-28T07:17:42;101337.41;;;7.06;37.92
45040;BME280;30778;53.574;7.770;2023-04-28T07:20:08;101336.19;;;7.25;38.21
45040;BME280;30778;53.574;7.770;2023-04-28T07:22:33;101331.81;;;7.27;37.85
45040;BME280;30778;53.574;7.770;2023-04-28T07:24:59;101333.81;;;7.61;37.55
45040;BME280;30778;53.574;7.770;2023-04-28T07:27:24;101332.53;;;7.81;37.25
45040;BME280;30778;53.574;7.770;2023-04-28T07:29:50;101330.75;;;8.22;37.02
45040;BME280;30778;53.574;7.770;2023-04-28T07:32:15;101324.91;;;8.12;36.63
45040;BME280;30778;53.574;7.770;2023-04-28T07:34:41;101332.91;;;8.42;36.10
45040;BME280;30778;53.574;7.770;2023-04-28T07:37:06;101328.16;;;8.22;36.33
45040;BME280;30778;53.574;7.770;2023-04-28T07:39:32;101325.34;;;8.31;36.57
45040;BME280;30778;53.574;7.770;2023-04-28T07:41:59;101323.53;;;7.95;37.06
45040;BME280;30778;53.574;7.770;2023-04-28T07:44:25;101314.75;;;7.59;37.50
45040;BME280;30778;53.574;7.770;2023-04-28T07:46:50;101316.84;;;7.84;37.79
45040;BME280;30778;53.574;7.770;2023-04-28T07:49:17;101309.78;;;8.28;36.35
45040;BME280;30778;53.574;7.770;2023-04-28T07:51:43;101301.13;;;8.63;35.86
45040;BME280;30778;53.574;7.770;2023-04-28T07:54:08;101300.13;;;8.33;36.34
45040;BME280;30778;53.574;7.770;2023-04-28T07:56:34;101306.03;;;8.02;36.50
45040;BME280;30778;53.574;7.770;2023-04-28T07:59:00;101304.00;;;7.76;37.12
45040;BME280;30778;53.574;7.770;2023-04-28T08:01:26;101296.22;;;8.13;36.62
45040;BME280;30778;53.574;7.770;2023-04-28T08:03:51;101291.34;;;8.37;36.27
45040;BME280;30778;53.574;7.770;2023-04-28T08:06:17;101284.03;;;8.15;36.27
45040;BME280;30778;53.574;7.770;2023-04-28T08:08:43;101290.16;;;8.50;36.58
45040;BME280;30778;53.574;7.770;2023-04-28T08:11:08;101294.69;;;8.42;36.02
45040;BME280;30778;53.574;7.770;2023-04-28T08:13:34;101286.69;;;8.50;35.53
45040;BME280;30778;53.574;7.770;2023-04-28T08:15:59;101286.59;;;8.17;35.47
45040;BME280;30778;53.574;7.770;2023-04-28T08:18:26;101280.19;;;8.32;35.35
45040;BME280;30778;53.574;7.770;2023-04-28T08:20:51;101284.59;;;8.28;35.68
45040;BME280;30778;53.574;7.770;2023-04-28T08:23:17;101276.41;;;8.44;35.75
45040;BME280;30778;53.574;7.770;2023-04-28T08:25:42;101293.94;;;8.37;35.57
45040;BME280;30778;53.574;7.770;2023-04-28T08:28:08;101279.50;;;8.60;35.46
45040;BME280;30778;53.574;7.770;2023-04-28T08:30:34;101277.50;;;8.35;35.75
45040;BME280;30778;53.574;7.770;2023-04-28T08:32:59;101281.13;;;8.29;35.81
45040;BME280;30778;53.574;7.770;2023-04-28T08:35:25;101273.38;;;8.25;36.21
45040;BME280;30778;53.574;7.770;2023-04-28T08:37:53;101271.41;;;8.36;36.04
45040;BME280;30778;53.574;7.770;2023-04-28T08:40:19;101271.25;;;8.42;35.63
45040;BME280;30778;53.574;7.770;2023-04-28T08:42:44;101277.38;;;8.02;36.20
45040;BME280;30778;53.574;7.770;2023-04-28T08:45:13;101274.91;;;8.35;36.46
45040;BME280;30778;53.574;7.770;2023-04-28T08:47:39;101268.31;;;8.90;35.33
45040;BME280;30778;53.574;7.770;2023-04-28T08:50:10;101268.09;;;8.98;35.46
45040;BME280;30778;53.574;7.770;2023-04-28T08:52:38;101263.00;;;8.93;34.74
45040;BME280;30778;53.574;7.770;2023-04-28T08:55:08;101262.44;;;8.82;35.07
45040;BME280;30778;53.574;7.770;2023-04-28T08:57:47;101257.41;;;9.07;35.36
45040;BME280;30778;53.574;7.770;2023-04-28T09:00:13;101256.91;;;8.94;35.26
45040;BME280;30778;53.574;7.770;2023-04-28T09:02:39;101265.78;;;8.53;35.74
45040;BME280;30778;53.574;7.770;2023-04-28T09:05:07;101259.72;;;8.52;35.81
45040;BME280;30778;53.574;7.770;2023-04-28T09:07:33;101259.28;;;8.33;36.03
45040;BME280;30778;53.574;7.770;2023-04-28T09:12:45;101251.19;;;8.80;35.14
45040;BME280;30778;53.574;7.770;2023-04-28T09:15:24;101250.66;;;8.67;36.14
45040;BME280;30778;53.574;7.770;2023-04-28T09:17:51;101249.34;;;8.85;36.40
45040;BME280;30778;53.574;7.770;2023-04-28T09:20:21;101246.97;;;8.40;36.25
45040;BME280;30778;53.574;7.770;2023-04-28T09:22:47;101247.78;;;8.42;36.44
45040;BME280;30778;53.574;7.770;2023-04-28T09:25:13;101245.78;;;8.53;36.65
45040;BME280;30778;53.574;7.770;2023-04-28T09:27:39;101240.50;;;8.56;36.27
45040;BME280;30778;53.574;7.770;2023-04-28T09:30:05;101237.72;;;8.63;36.75
45040;BME280;30778;53.574;7.770;2023-04-28T09:32:31;101234.31;;;8.25;37.09
45040;BME280;30778;53.574;7.770;2023-04-28T09:34:56;101230.34;;;8.46;36.83
45040;BME280;30778;53.574;7.770;2023-04-28T09:37:23;101228.69;;;8.43;36.66
45040;BME280;30778;53.574;7.770;2023-04-28T09:39:52;101233.72;;;8.13;37.40
45040;BME280;30778;53.574;7.770;2023-04-28T09:42:40;101226.50;;;8.25;37.76
45040;BME280;30778;53.574;7.770;2023-04-28T09:45:13;101230.38;;;8.44;37.80
45040;BME280;30778;53.574;7.770;2023-04-28T09:47:40;101221.31;;;8.25;37.58
45040;BME280;30778;53.574;7.770;2023-04-28T09:50:08;101211.25;;;8.11;37.85
45040;BME280;30778;53.574;7.770;2023-04-28T09:52:37;101208.72;;;8.42;37.91
45040;BME280;30778;53.574;7.770;2023-04-28T09:55:04;101206.31;;;8.36;37.78
45040;BME280;30778;53.574;7.770;2023-04-28T09:57:32;101209.00;;;8.66;37.76
45040;BME280;30778;53.574;7.770;2023-04-28T09:59:58;101215.16;;;8.63;37.35
45040;BME280;30778;53.574;7.770;2023-04-28T10:02:24;101214.03;;;8.39;38.53
45040;BME280;30778;53.574;7.770;2023-04-28T10:04:50;101207.09;;;8.72;38.21
45040;BME280;30778;53.574;7.770;2023-04-28T10:07:20;101211.16;;;8.50;37.81
45040;BME280;30778;53.574;7.770;2023-04-28T10:09:47;101208.66;;;8.45;37.88
45040;BME280;30778;53.574;7.770;2023-04-28T10:12:18;101203.53;;;8.76;38.16
45040;BME280;30778;53.574;7.770;2023-04-28T10:14:45;101202.97;;;8.64;37.88
45040;BME280;30778;53.574;7.770;2023-04-28T10:17:13;101206.34;;;8.67;37.67
45040;BME280;30778;53.574;7.770;2023-04-28T10:19:40;101199.94;;;8.46;37.71
45040;BME280;30778;53.574;7.770;2023-04-28T10:27:46;101181.31;;;8.62;38.28
45040;BME280;30778;53.574;7.770;2023-04-28T10:30:20;101187.53;;;8.89;38.34
45040;BME280;30778;53.574;7.770;2023-04-28T10:32:47;101184.22;;;8.84;38.10
45040;BME280;30778;53.574;7.770;2023-04-28T10:38:12;101167.16;;;8.70;38.17
45040;BME280;30778;53.574;7.770;2023-04-28T10:40:42;101172.69;;;8.92;38.11
45040;BME280;30778;53.574;7.770;2023-04-28T10:43:13;101167.19;;;9.02;38.03
45040;BME280;30778;53.574;7.770;2023-04-28T10:48:14;101158.13;;;9.43;37.25
45040;BME280;30778;53.574;7.770;2023-04-28T10:56:09;101147.84;;;9.38;36.96
45040;BME280;30778;53.574;7.770;2023-04-28T10:58:35;101148.94;;;9.02;36.97
45040;BME280;30778;53.574;7.770;2023-04-28T11:03:49;101138.59;;;9.28;36.98
45040;BME280;30778;53.574;7.770;2023-04-28T11:06:31;101141.19;;;9.56;36.37
45040;BME280;30778;53.574;7.770;2023-04-28T11:09:00;101138.41;;;9.34;36.89
45040;BME280;30778;53.574;7.770;2023-04-28T11:11:29;101140.75;;;9.44;37.12
45040;BME280;30778;53.574;7.770;2023-04-28T11:16:55;101135.59;;;9.12;38.54
45040;BME280;30778;53.574;7.770;2023-04-28T11:19:25;101143.47;;;9.11;38.78
45040;BME280;30778;53.574;7.770;2023-04-28T11:21:54;101132.47;;;8.68;39.50
45040;BME280;30778;53.574;7.770;2023-04-28T11:24:23;101132.34;;;8.74;40.48
45040;BME280;30778;53.574;7.770;2023-04-28T11:26:59;101134.47;;;8.91;40.07
45040;BME280;30778;53.574;7.770;2023-04-28T11:31:57;101125.31;;;9.08;39.78
45040;BME280;30778;53.574;7.770;2023-04-28T11:34:24;101127.22;;;9.31;39.39
45040;BME280;30778;53.574;7.770;2023-04-28T11:36:49;101124.31;;;9.40;39.59
45040;BME280;30778;53.574;7.770;2023-04-28T11:39:15;101120.38;;;9.27;39.21
45040;BME280;30778;53.574;7.770;2023-04-28T11:41:42;101122.25;;;9.50;38.74
45040;BME280;30778;53.574;7.770;2023-04-28T11:44:19;101127.09;;;9.62;38.33
45040;BME280;30778;53.574;7.770;2023-04-28T11:46:48;101127.25;;;9.86;38.52
45040;BME280;30778;53.574;7.770;2023-04-28T11:49:23;101118.66;;;9.54;39.29
45040;BME280;30778;53.574;7.770;2023-04-28T11:51:55;101114.31;;;9.54;39.90
45040;BME280;30778;53.574;7.770;2023-04-28T11:54:24;101114.31;;;9.54;39.70
45040;BME280;30778;53.574;7.770;2023-04-28T11:56:51;101120.53;;;9.77;39.74
45040;BME280;30778;53.574;7.770;2023-04-28T11:59:18;101121.75;;;9.38;40.30
45040;BME280;30778;53.574;7.770;2023-04-28T12:01:53;101119.34;;;9.32;40.77
45040;BME280;30778;53.574;7.770;2023-04-28T12:04:38;101118.47;;;9.32;40.71
45040;BME280;30778;53.574;7.770;2023-04-28T12:07:08;101114.06;;;9.62;40.28
45040;BME280;30778;53.574;7.770;2023-04-28T12:09:36;101104.81;;;9.80;39.47
45040;BME280;30778;53.574;7.770;2023-04-28T12:12:04;101116.00;;;9.84;39.68
45040;BME280;30778;53.574;7.770;2023-04-28T12:14:30;101109.69;;;9.91;39.55
45040;BME280;30778;53.574;7.770;2023-04-28T12:17:00;101110.81;;;10.34;38.73
45040;BME280;30778;53.574;7.770;2023-04-28T12:19:26;101105.09;;;10.22;38.85
45040;BME280;30778;53.574;7.770;2023-04-28T12:22:05;101106.88;;;9.97;38.12
45040;BME280;30778;53.574;7.770;2023-04-28T12:24:31;101108.28;;;10.06;38.44
45040;BME280;30778;53.574;7.770;2023-04-28T12:27:19;101099.38;;;10.36;38.34
45040;BME280;30778;53.574;7.770;2023-04-28T12:29:46;101094.47;;;10.52;38.32
45040;BME280;30778;53.574;7.770;2023-04-28T12:32:13;101087.66;;;10.48;38.61
45040;BME280;30778;53.574;7.770;2023-04-28T12:34:40;101085.97;;;9.97;39.26
45040;BME280;30778;53.574;7.770;2023-04-28T12:37:06;101090.47;;;9.92;39.18
45040;BME280;30778;53.574;7.770;2023-04-28T12:39:32;101086.22;;;9.89;39.47
45040;BME280;30778;53.574;7.770;2023-04-28T12:41:59;101077.34;;;9.95;39.72
45040;BME280;30778;53.574;7.770;2023-04-28T12:44:26;101087.47;;;9.77;39.35
45040;BME280;30778;53.574;7.770;2023-04-28T12:46:55;101077.03;;;9.77;39.11
45040;BME280;30778;53.574;7.770;2023-04-28T12:49:21;101082.28;;;9.76;38.97
45040;BME280;30778;53.574;7.770;2023-04-28T12:51:46;101077.41;;;9.65;39.25
45040;BME280;30778;53.574;7.770;2023-04-28T12:54:12;101081.75;;;9.66;39.11
45040;BME280;30778;53.574;7.770;2023-04-28T12:56:38;101076.41;;;9.69;39.05
45040;BME280;30778;53.574;7.770;2023-04-28T12:59:04;101072.97;;;9.95;38.69
45040;BME280;30778;53.574;7.770;2023-04-28T13:01:30;101068.53;;;9.71;39.04
45040;BME280;30778;53.574;7.770;2023-04-28T13:03:55;101076.41;;;9.69;39.42
45040;BME280;30778;53.574;7.770;2023-04-28T13:06:21;101071.09;;;9.72;39.58
45040;BME280;30778;53.574;7.770;2023-04-28T13:08:46;101072.91;;;9.70;40.15
45040;BME280;30778;53.574;7.770;2023-04-28T13:11:13;101067.41;;;9.79;40.47
45040;BME280;30778;53.574;7.770;2023-04-28T13:13:38;101068.25;;;9.25;41.74
45040;BME280;30778;53.574;7.770;2023-04-28T13:16:04;101072.13;;;8.52;43.31
45040;BME280;30778;53.574;7.770;2023-04-28T13:18:30;101066.63;;;8.32;44.76
45040;BME280;30778;53.574;7.770;2023-04-28T13:20:56;101067.44;;;8.01;44.92
45040;BME280;30778;53.574;7.770;2023-04-28T13:23:22;101065.41;;;8.12;46.23
45040;BME280;30778;53.574;7.770;2023-04-28T13:25:47;101062.00;;;8.42;46.12